Corunna, Michigan
Current Conditions -  °F | °C
As of 12:13 PM on Friday 24 Oct 2014 (Local Time) from KRNP Reporting Station
Overcast Overcast  
Wind Chill: 54°   Ceiling: 3800
Heat Index: 54°   Visibility: 10mi
Dew Point: 46°   Wind: 3mph
Humidity: 74%   Direction: 240°WSW
Pressure: 30.05"   Gusts: NA
Location:  42.98°N, 84.12°W
Report Text: KRNP 241613Z AUTO 24003KT 10SM OVC038 12/08 A3005 RMK AO2 T01200075
Loading
Personal Weather Stations






























Interactive Weather Map
Tropical Storm Tracking
New forecast layout! Learn more

10-Day Weather Forecast

Advertisements
Track Severe Weather on mobile